Buchanan Airport

Jump to: basic info | weather | comments

Related pages: nearby airports | nearby navaids | notams | map

Basic information (top)

Codes: UCN GLBU
Location: lon 5.167650, lat -9.283470, elev 41 ft / 12 m msl
Status: small_airport
Scheduled airline service: no
Links: Wikipedia Mobile

Weather (top)

Current conditions for Roberts International Airport 91nm (168km) NW (rec'd 2014/04/24 05:00Z):

GLRB 240500Z 00000KT 9999 SCT013 25/24 Q1009 NOSIG

Airport forecast for Roberts International Airport 91nm (168km) NW (rec'd 2014/04/23 00:54Z):

TAF TAF GLRB 232200Z 2400/2506 17005KT 9999 SCT014 
      BECMG 2401/2403 VRB03KT 9000 
     FM240600 04005KT 9999 SCT013 
      TEMPO 2411/2415 24012KT 9999

Latest comments (top)

No comments yet for Buchanan Airport

More... (top)

See also NOTAMs and nearby airports and navaids, or visit the Buchanan Airport page at the main OurAirports website..